Istanbul, Turkey

4:15 AM EEST on September 27, 2016 (GMT +0300)
Ataturk | | Change Station

Elev 121 ft 40.98 °N, 28.81 °E | Updated 25 minutes ago

Mostly Cloudy
Mostly Cloudy
59 °F
Feels Like 59 °F
N
9
Wind Variable Wind from NNW

Today
High -- | Low -- °F
--% Chance of Precip.
Yesterday
High -- | Low -- °F
Precip. -- in
Pressure 30.09 in
Visibility 6.2 miles
Clouds Scattered Clouds 3500 ft
Mostly Cloudy 8000 ft
Dew Point 52 °F
Humidity 77%
Rainfall 0.00 in
Snow Depth Not available.
6:57 AM 6:53 PM
Waning Crescent, 15% visible
METAR LTBA 270050Z 34008KT 9999 SCT035 BKN080 15/11 Q1019 NOSIG RMK RWY17L 35006KT RWY05 33008KT 320V030 RWY23 33004KT
Pressure 30.09 in
Visibility 6.2 miles
Clouds Scattered Clouds 3500 ft
Mostly Cloudy 8000 ft
Dew Point 52 °F
Humidity 77%
Rainfall 0.00 in
Snow Depth Not available.
6:57 AM 6:53 PM
Waning Crescent, 15% visible
METAR LTBA 270050Z 34008KT 9999 SCT035 BKN080 15/11 Q1019 NOSIG RMK RWY17L 35006KT RWY05 33008KT 320V030 RWY23 33004KT

10-Day Weather Forecast

×

Almanac

Astronomy

Sep. 27, 2016 Rise Set
Actual Time
Civil Twilight
Nautical Twilight
Astronomical Twilight
Moon
Length of Visible Light
Length of Day
Tomorrow will be .
, % of the Moon is Illuminated

Today's Extremes

Country Highs Country Lows

Community

WunderPhotos

Upload Photos

1,942,001 photos uploaded!

WunderBlog® & News

Nearby

Air Quality

  Air Quality AQ Index Pollutant
Not available.

Snow Depth

Station Depth Elevation

Earthquake Activity

City Distance Mag. Time & Date
Minimum magnitude displayed is 2.5.

Coastal Water Temperatures

Place Temperature

Stations

Nearby Weather Stations

Station Location Temp. Windchill Dew Point Humidity Wind Precip. Elev Updated Type